Terminal Aerodrome Forecast
Issued by NWS

Home | Current Version | Previous Version | Text Only | Print | Product List | Glossary On
Versions: 1 2 3 4 5 6 7 8 9 10 11 12 13 14 15 16 17 18 19 20 21 22 23 24
000
FTUS41 KBGM 020500
TAFITH
TAF
KITH 020530Z 0206/0306 13003KT P6SM FEW045 SCT150
      TEMPO 0209/0213 4SM BR BKN045
     FM021300 17004KT P6SM SCT040 BKN100
     FM030000 VRB03KT P6SM OVC050=

USA.gov is the U.S. government's official web portal to all federal, state and local government web resources and services.